Time;durP1;ratioP1;P1;durP2;ratioP2;P2;SDS_P1;SDS_P2;PMS_P1;PMS_P2;Temp;Humidity;BMP_temperature;BMP_pressure;BME280_temperature;BME280_humidity;BME280_pressure;Samples;Min_cycle;Max_cycle;Signal;HPM_P1;HPM_P2
2023/06/18 00:01:11;;;;;;;;;18.75;17.00;;;;;28.94;44.77;100929.13;5075909;28;46120;-72
2023/06/18 00:03:36;;;;;;;;;20.50;19.75;;;;;29.01;44.70;100923.72;5075861;28;46960;-72
2023/06/18 00:06:01;;;;;;;;;17.50;16.50;;;;;29.06;44.35;100920.34;5075929;28;45311;-72
2023/06/18 00:08:27;;;;;;;;;22.00;20.75;;;;;29.10;43.88;100920.72;5075946;28;45165;-71
2023/06/18 00:10:52;;;;;;;;;22.50;18.25;;;;;29.13;43.97;100925.63;5075758;28;45332;-72
2023/06/18 00:13:18;;;;;;;;;20.75;18.75;;;;;29.18;43.14;100934.63;5075714;28;46128;-72
2023/06/18 00:15:43;;;;;;;;;16.00;13.25;;;;;29.23;43.56;100936.63;5091384;27;45271;-72
2023/06/18 00:18:09;;;;;;;;;19.25;18.25;;;;;29.28;43.37;100941.28;5075877;28;45352;-72
2023/06/18 00:20:35;;;;;;;;;18.00;16.75;;;;;29.28;43.17;100935.94;5075868;28;45394;-71
2023/06/18 00:23:01;;;;;;;;;17.25;15.75;;;;;29.34;42.83;100942.25;5076907;27;45361;-72
2023/06/18 00:25:27;;;;;;;;;16.25;15.75;;;;;29.37;43.04;100950.66;5079070;27;45453;-72
2023/06/18 00:27:52;;;;;;;;;14.00;14.00;;;;;29.40;43.00;100944.84;5079493;27;45276;-72
2023/06/18 00:30:18;;;;;;;;;17.00;16.00;;;;;29.40;42.92;100936.81;5079385;28;45372;-72
2023/06/18 00:32:46;;;;;;;;;16.75;14.50;;;;;29.45;42.83;100946.84;5079038;28;46167;-72
2023/06/18 00:35:14;;;;;;;;;15.75;15.75;;;;;29.46;42.98;100931.56;5079274;27;45264;-72
2023/06/18 00:37:43;;;;;;;;;19.75;18.25;;;;;29.50;43.02;100920.16;5079440;27;45324;-72
2023/06/18 00:40:12;;;;;;;;;16.75;16.75;;;;;29.51;42.59;100915.59;5078670;27;45334;-72
2023/06/18 00:42:39;;;;;;;;;22.00;21.00;;;;;29.52;42.63;100914.56;5078931;28;46141;-72
2023/06/18 00:45:08;;;;;;;;;18.00;16.75;;;;;29.51;42.46;100913.72;5079011;27;45275;-71
2023/06/18 00:47:34;;;;;;;;;16.75;15.25;;;;;29.57;42.32;100927.25;5079042;27;45272;-72
2023/06/18 00:50:00;;;;;;;;;19.50;16.25;;;;;29.57;42.48;100932.63;5078761;27;45382;-72
2023/06/18 00:52:27;;;;;;;;;18.00;15.50;;;;;29.58;42.42;100936.94;5078635;28;47037;-72
2023/06/18 00:54:53;;;;;;;;;20.25;18.50;;;;;29.60;42.34;100937.53;5078505;27;45358;-72
2023/06/18 00:57:20;;;;;;;;;20.00;18.25;;;;;29.61;42.14;100933.81;5078778;28;45245;-71
2023/06/18 00:59:50;;;;;;;;;17.25;15.50;;;;;29.62;42.39;100930.91;5078917;27;45375;-72
2023/06/18 01:02:23;;;;;;;;;14.50;14.50;;;;;29.64;42.31;100938.69;5078615;27;46492;-72
2023/06/18 01:04:53;;;;;;;;;16.75;15.75;;;;;29.65;42.47;100934.16;5078627;27;45378;-72
2023/06/18 01:07:20;;;;;;;;;18.25;16.75;;;;;29.65;42.18;100923.44;5078653;28;45370;-72
2023/06/18 01:09:53;;;;;;;;;22.00;19.25;;;;;29.66;42.27;100923.22;5078486;27;45636;-72
2023/06/18 01:12:19;;;;;;;;;20.25;20.25;;;;;29.66;42.44;100925.06;5078454;28;45399;-72
2023/06/18 01:14:50;;;;;;;;;15.25;15.25;;;;;29.68;41.84;100922.97;5078514;28;45449;-72
2023/06/18 01:17:17;;;;;;;;;17.25;17.25;;;;;29.67;42.17;100914.09;5057295;28;45308;-72
2023/06/18 01:19:55;;;;;;;;;20.75;18.00;;;;;29.71;42.31;100912.66;5057334;28;45365;-72
2023/06/18 01:22:37;;;;;;;;;16.75;16.75;;;;;29.71;42.12;100911.78;5056546;28;46561;-72
2023/06/18 01:25:03;;;;;;;;;20.50;20.50;;;;;29.69;42.21;100901.28;5057108;28;45322;-71
2023/06/18 01:27:33;;;;;;;;;16.50;16.00;;;;;29.68;41.77;100907.72;5057200;28;45368;-72
2023/06/18 01:30:00;;;;;;;;;17.33;14.33;;;;;29.71;42.00;100919.84;5056980;28;45407;-72
2023/06/18 01:32:26;;;;;;;;;20.25;18.75;;;;;29.72;42.00;100932.22;5056890;28;45288;-72
2023/06/18 01:34:55;;;;;;;;;16.75;15.25;;;;;29.72;41.89;100934.88;5055999;28;45289;-72
2023/06/18 01:37:26;;;;;;;;;17.25;17.25;;;;;29.73;41.71;100933.84;5056487;28;45538;-72
2023/06/18 01:40:31;;;;;;;;;18.50;16.25;;;;;29.73;41.79;100929.31;5069193;28;45245;-72
2023/06/18 01:43:07;;;;;;;;;15.25;13.50;;;;;29.72;41.75;100926.84;5076871;28;47218;-72
2023/06/18 01:45:45;;;;;;;;;17.75;16.50;;;;;29.73;41.69;100934.69;5076899;28;45375;-72
2023/06/18 01:48:12;;;;;;;;;14.00;14.00;;;;;29.74;41.81;100943.53;5077040;28;45387;-72
2023/06/18 01:50:41;;;;;;;;;19.00;17.00;;;;;29.74;41.67;100952.38;5068765;28;45358;-71
2023/06/18 01:53:08;;;;;;;;;16.25;16.25;;;;;29.74;42.27;100940.88;5038018;28;46140;-71
2023/06/18 01:55:37;;;;;;;;;15.25;13.75;;;;;29.77;41.62;100947.63;5056416;28;45345;-72
2023/06/18 01:58:03;;;;;;;;;17.00;16.25;;;;;29.75;41.66;100947.84;5056331;28;45399;-72
2023/06/18 02:00:28;;;;;;;;;18.50;16.50;;;;;29.74;41.92;100951.59;5056490;28;45430;-72
2023/06/18 02:02:54;;;;;;;;;17.75;15.00;;;;;29.75;41.70;100955.88;5056283;28;46010;-72
2023/06/18 02:05:19;;;;;;;;;14.75;13.75;;;;;29.77;41.78;100969.09;5056341;28;45455;-72
2023/06/18 02:07:45;;;;;;;;;16.50;16.00;;;;;29.76;41.93;100967.44;5056212;28;45409;-71
2023/06/18 02:10:10;;;;;;;;;17.25;15.00;;;;;29.77;41.27;100963.72;5056261;28;45404;-72
2023/06/18 02:12:36;;;;;;;;;17.50;16.50;;;;;29.79;41.67;100970.47;5056142;28;46218;-71
2023/06/18 02:15:01;;;;;;;;;14.00;14.00;;;;;29.78;41.72;100968.84;5011903;28;1320290;-72
2023/06/18 02:17:28;;;;;;;;;17.00;16.00;;;;;29.77;41.63;100961.81;5077718;28;45433;-72
2023/06/18 02:19:53;;;;;;;;;17.00;15.25;;;;;29.80;41.58;100963.22;5077913;27;45401;-72
2023/06/18 02:22:19;;;;;;;;;19.50;16.25;;;;;29.77;41.61;100961.03;5076878;28;46040;-71
2023/06/18 02:24:45;;;;;;;;;15.33;13.67;;;;;29.78;41.74;100966.16;5077480;28;45291;-72
2023/06/18 02:27:11;;;;;;;;;16.00;14.00;;;;;29.81;41.58;100962.19;5077528;28;45378;-72
2023/06/18 02:29:36;;;;;;;;;14.67;14.33;;;;;29.80;41.78;100960.56;5077578;28;45323;-72
2023/06/18 02:32:02;;;;;;;;;15.00;15.00;;;;;29.81;41.72;100967.56;5077276;28;45375;-72
2023/06/18 02:34:28;;;;;;;;;18.00;17.75;;;;;29.77;41.49;100953.78;5092932;27;45857;-72
2023/06/18 02:36:56;;;;;;;;;15.00;14.75;;;;;29.78;41.48;100946.56;5077204;28;45410;-72
2023/06/18 02:39:22;;;;;;;;;15.50;13.25;;;;;29.76;41.71;100949.50;5077225;27;45279;-72
2023/06/18 02:41:47;;;;;;;;;14.00;13.00;;;;;29.80;41.63;100949.81;5077033;28;46088;-72
2023/06/18 02:44:12;;;;;;;;;15.00;13.00;;;;;29.81;41.38;100948.78;5077147;27;45291;-72
2023/06/18 02:46:38;;;;;;;;;16.00;14.00;;;;;29.80;41.48;100941.78;5076310;28;45342;-72
2023/06/18 02:49:03;;;;;;;;;14.00;14.00;;;;;29.79;41.49;100932.94;5077297;27;45426;-72
2023/06/18 02:51:29;;;;;;;;;12.75;12.75;;;;;29.78;41.47;100933.16;5076458;27;46117;-72
2023/06/18 02:53:54;;;;;;;;;10.00;10.00;;;;;29.80;41.46;100936.41;5076983;27;45481;-71
2023/06/18 02:56:21;;;;;;;;;15.00;14.75;;;;;29.79;41.56;100942.84;5077096;28;45357;-72
2023/06/18 02:58:49;;;;;;;;;16.50;14.00;;;;;29.77;41.64;100935.00;5076924;28;45459;-71
2023/06/18 03:01:17;;;;;;;;;14.25;14.25;;;;;29.78;41.39;100936.66;5076796;28;46093;-72
2023/06/18 03:03:42;;;;;;;;;13.33;12.00;;;;;29.78;41.63;100933.16;5076607;28;45393;-71
2023/06/18 03:06:08;;;;;;;;;14.00;14.00;;;;;29.79;41.49;100930.25;5076845;28;45316;-72
2023/06/18 03:08:33;;;;;;;;;16.25;14.50;;;;;29.80;41.35;100931.06;5077022;27;45307;-72
2023/06/18 03:10:58;;;;;;;;;12.67;11.00;;;;;29.78;41.62;100911.69;5076567;28;45924;-71
2023/06/18 03:13:24;;;;;;;;;12.67;12.67;;;;;29.80;41.43;100920.31;5076727;27;45385;-72
2023/06/18 03:15:49;;;;;;;;;11.00;11.00;;;;;29.79;41.39;100913.34;5076695;28;45339;-72
2023/06/18 03:18:14;;;;;;;;;11.67;11.67;;;;;29.80;41.43;100909.59;5076561;27;45461;-72
2023/06/18 03:20:40;;;;;;;;;15.00;14.25;;;;;29.81;41.33;100905.88;5076697;28;46108;-71
2023/06/18 03:23:05;;;;;;;;;12.50;12.00;;;;;29.78;41.38;100895.63;5076330;28;50375;-72
2023/06/18 03:25:30;;;;;;;;;13.75;12.75;;;;;29.80;41.34;100888.97;5076694;28;45330;-72
2023/06/18 03:27:56;;;;;;;;;14.33;13.00;;;;;29.80;41.42;100886.28;5076710;28;45371;-71
2023/06/18 03:30:21;;;;;;;;;12.67;12.67;;;;;29.80;41.39;100880.09;5076401;27;45391;-72
2023/06/18 03:32:47;;;;;;;;;11.75;11.50;;;;;29.76;41.20;100887.00;5076208;28;45326;-72
2023/06/18 03:35:13;;;;;;;;;14.00;14.00;;;;;29.80;41.28;100897.00;5076560;28;45354;-72
2023/06/18 03:37:38;;;;;;;;;13.50;12.50;;;;;29.80;41.18;100905.06;5076347;28;45374;-71
2023/06/18 03:40:04;;;;;;;;;13.67;12.67;;;;;29.78;41.33;100909.84;5076095;27;46255;-72
2023/06/18 03:42:30;;;;;;;;;12.00;12.00;;;;;29.80;41.50;100914.97;5091945;27;45277;-72
2023/06/18 03:44:55;;;;;;;;;13.33;12.67;;;;;29.79;41.41;100916.03;5076887;27;45536;-72
2023/06/18 03:47:21;;;;;;;;;13.67;12.00;;;;;29.80;41.18;100914.97;5075875;28;45374;-72
2023/06/18 03:49:46;;;;;;;;;14.00;13.00;;;;;29.80;41.19;100899.69;5076108;28;46058;-72
2023/06/18 03:52:12;;;;;;;;;14.00;12.00;;;;;29.77;41.49;100894.00;5076052;28;45296;-72
2023/06/18 03:54:38;;;;;;;;;12.33;11.67;;;;;29.78;41.37;100896.44;5076340;28;45245;-72
2023/06/18 03:57:04;;;;;;;;;10.67;10.67;;;;;29.80;41.35;100905.06;5076045;28;45441;-71
2023/06/18 03:59:29;;;;;;;;;11.00;11.00;;;;;29.78;41.71;100909.03;5075905;27;46010;-72
2023/06/18 04:01:55;;;;;;;;;11.33;11.33;;;;;29.76;41.34;100906.59;5075598;28;45329;-72
2023/06/18 04:04:20;;;;;;;;;16.75;13.00;;;;;29.79;41.15;100908.00;5076045;28;45440;-72
2023/06/18 04:06:46;;;;;;;;;15.33;14.00;;;;;29.78;41.41;100917.06;5076068;28;45372;-72
2023/06/18 04:09:11;;;;;;;;;13.67;12.00;;;;;29.78;41.26;100912.53;5075869;28;45818;-72
2023/06/18 04:11:38;;;;;;;;;14.33;13.33;;;;;29.80;41.11;100906.91;5075758;28;45340;-72
2023/06/18 04:14:04;;;;;;;;;11.00;11.00;;;;;29.80;41.28;100912.28;5076086;27;45391;-72
2023/06/18 04:16:29;;;;;;;;;13.00;12.67;;;;;29.80;41.21;100915.78;5075246;28;45452;-72
2023/06/18 04:18:54;;;;;;;;;13.67;13.00;;;;;29.80;41.09;100914.97;5075858;28;46167;-72
2023/06/18 04:21:20;;;;;;;;;11.00;11.00;;;;;29.81;41.15;100920.13;5075882;28;45467;-72
2023/06/18 04:23:45;;;;;;;;;12.33;10.67;;;;;29.81;41.18;100921.97;5075810;28;45319;-72
2023/06/18 04:26:11;;;;;;;;;12.00;12.00;;;;;29.82;41.05;100934.34;5075854;28;45441;-72
2023/06/18 04:28:36;;;;;;;;;11.00;10.67;;;;;29.81;41.10;100928.16;5075751;28;45374;-71
2023/06/18 04:31:02;;;;;;;;;13.67;11.00;;;;;29.82;41.25;100927.09;5075400;28;45403;-72
2023/06/18 04:33:27;;;;;;;;;11.00;10.00;;;;;29.81;41.28;100930.84;5075714;28;45319;-72
2023/06/18 04:35:52;;;;;;;;;11.00;10.00;;;;;29.81;40.87;100921.97;5075653;28;45316;-72
2023/06/18 04:38:18;;;;;;;;;12.00;10.00;;;;;29.81;41.08;100922.78;5075508;28;46051;-73
2023/06/18 04:40:43;;;;;;;;;9.67;8.00;;;;;29.82;41.32;100923.63;5075483;27;45427;-72
2023/06/18 04:43:08;;;;;;;;;11.00;10.33;;;;;29.83;41.21;100935.97;5075610;27;45323;-72
2023/06/18 04:45:34;;;;;;;;;11.00;9.67;;;;;29.81;41.22;100940.75;5075272;27;45456;-72
2023/06/18 04:47:59;;;;;;;;;11.67;11.67;;;;;29.82;41.17;100937.03;5075360;27;45806;-71
2023/06/18 04:50:24;;;;;;;;;11.33;10.00;;;;;29.83;41.02;100930.59;5075352;28;45305;-72
2023/06/18 04:52:50;;;;;;;;;9.67;9.00;;;;;29.81;41.35;100922.78;5075548;27;45234;-72
2023/06/18 04:55:15;;;;;;;;;11.67;11.67;;;;;29.82;41.18;100915.56;5075688;27;45210;-72
2023/06/18 04:57:40;;;;;;;;;10.33;10.00;;;;;29.81;41.21;100917.44;5075346;27;45309;-72
2023/06/18 05:00:07;;;;;;;;;9.00;9.00;;;;;29.81;41.32;100917.44;5074983;28;45294;-72
2023/06/18 05:02:34;;;;;;;;;11.67;10.67;;;;;29.80;41.22;100923.84;5075302;28;45361;-72
2023/06/18 05:04:59;;;;;;;;;11.00;10.00;;;;;29.77;41.47;100926.97;5075306;28;45335;-72
2023/06/18 05:07:25;;;;;;;;;10.00;9.67;;;;;29.80;41.17;100931.88;5075045;28;46761;-71
2023/06/18 05:09:50;;;;;;;;;8.33;8.33;;;;;29.81;41.39;100940.75;5077569;28;45359;-72
2023/06/18 05:12:15;;;;;;;;;10.67;10.67;;;;;29.75;41.13;100937.13;5078662;28;45351;-72
2023/06/18 05:14:41;;;;;;;;;11.00;11.00;;;;;29.78;41.18;100942.03;5078466;27;45295;-71
2023/06/18 05:17:06;;;;;;;;;11.00;9.00;;;;;29.80;41.41;100947.13;5078444;28;47081;-72
2023/06/18 05:19:31;;;;;;;;;7.00;7.00;;;;;29.79;41.57;100953.56;5077376;28;45317;-72
2023/06/18 05:21:57;;;;;;;;;11.67;9.33;;;;;29.80;41.23;100949.81;5078560;28;45623;-71
2023/06/18 05:24:23;;;;;;;;;10.00;10.00;;;;;29.79;41.22;100953.56;5078448;27;45510;-72
2023/06/18 05:26:48;;;;;;;;;9.33;9.33;;;;;29.78;41.13;100950.06;5078234;28;46278;-72
2023/06/18 05:29:15;;;;;;;;;8.33;8.33;;;;;29.79;41.13;100943.66;5078161;28;45290;-72
2023/06/18 05:31:41;;;;;;;;;11.33;10.33;;;;;29.77;41.27;100937.69;5078595;28;45379;-72
2023/06/18 05:34:06;;;;;;;;;10.00;10.00;;;;;29.78;41.53;100939.34;5078258;28;45401;-72
2023/06/18 05:36:31;;;;;;;;;11.33;10.67;;;;;29.80;41.29;100937.25;5077667;28;56902;-72
2023/06/18 05:38:59;;;;;;;;;11.67;10.33;;;;;29.78;41.36;100933.16;5078189;27;45419;-72
2023/06/18 05:41:25;;;;;;;;;10.33;9.33;;;;;29.81;41.11;100930.03;5078396;28;45386;-72
2023/06/18 05:43:51;;;;;;;;;9.67;9.00;;;;;29.78;41.70;100920.56;5077386;27;45592;-72
2023/06/18 05:46:16;;;;;;;;;8.67;8.00;;;;;29.81;41.14;100913.94;5077964;27;47024;-72
2023/06/18 05:48:42;;;;;;;;;8.33;8.00;;;;;29.78;41.14;100891.06;5077890;28;49627;-72
2023/06/18 05:51:07;;;;;;;;;8.67;7.67;;;;;29.81;41.03;100889.78;5078171;27;45233;-72
2023/06/18 05:53:32;;;;;;;;;11.00;10.67;;;;;29.78;41.20;100887.56;5078059;28;45609;-72
2023/06/18 05:55:57;;;;;;;;;8.00;8.00;;;;;29.80;41.04;100888.16;5077929;28;48595;-72
2023/06/18 05:58:23;;;;;;;;;10.00;8.67;;;;;29.82;41.31;100888.75;5077640;28;45324;-71
2023/06/18 06:00:48;;;;;;;;;7.00;7.00;;;;;29.81;41.14;100895.97;5077485;28;54562;-72
2023/06/18 06:03:13;;;;;;;;;7.00;7.00;;;;;29.82;41.34;100913.69;5078024;28;45280;-72
2023/06/18 06:05:39;;;;;;;;;10.33;9.00;;;;;29.82;41.10;100928.97;5077861;28;45939;-72
2023/06/18 06:08:06;;;;;;;;;10.00;10.00;;;;;29.82;41.21;100929.78;5077807;28;45397;-72
2023/06/18 06:10:33;;;;;;;;;8.67;8.00;;;;;29.82;41.17;100928.97;5077820;28;45392;-72
2023/06/18 06:12:58;;;;;;;;;12.33;9.67;;;;;29.81;41.20;100928.16;5077420;28;45335;-72
2023/06/18 06:15:23;;;;;;;;;9.67;9.67;;;;;29.77;41.29;100926.19;5077177;27;47177;-72
2023/06/18 06:17:49;;;;;;;;;8.33;8.00;;;;;29.81;41.26;100938.06;5077660;27;45285;-72
2023/06/18 06:20:14;;;;;;;;;10.33;8.67;;;;;29.80;41.22;100937.25;5076470;28;45298;-72
2023/06/18 06:22:40;;;;;;;;;9.67;9.67;;;;;29.78;41.14;100943.88;5077612;28;45465;-72
2023/06/18 06:25:06;;;;;;;;;9.33;8.00;;;;;29.73;41.19;100929.31;5077406;28;45332;-72
2023/06/18 06:27:33;;;;;;;;;1.67;0.33;;;;;29.80;41.38;100933.72;5077223;28;45307;-71
2023/06/18 06:30:01;;;;;;;;;8.67;8.67;;;;;29.78;41.35;100911.69;5077681;28;45310;-72
2023/06/18 06:32:27;;;;;;;;;7.67;7.67;;;;;29.76;41.23;100906.59;5076801;28;45585;-70
2023/06/18 06:34:52;;;;;;;;;10.67;9.00;;;;;29.77;41.09;100910.09;5077222;28;46893;-70
2023/06/18 06:37:17;;;;;;;;;9.00;9.00;;;;;29.79;41.21;100895.41;5077302;28;45375;-73
2023/06/18 06:39:43;;;;;;;;;11.33;9.33;;;;;29.80;40.97;100897.00;5077427;27;45362;-70
2023/06/18 06:42:10;;;;;;;;;8.00;7.33;;;;;29.80;41.09;100885.47;5077029;27;45420;-72
2023/06/18 06:44:35;;;;;;;;;10.25;9.50;;;;;29.80;41.36;100891.66;5077167;27;47052;-71
2023/06/18 06:47:00;;;;;;;;;8.33;8.33;;;;;29.77;40.81;100877.91;5077285;28;45453;-71
2023/06/18 06:49:26;;;;;;;;;9.00;7.33;;;;;29.78;41.07;100887.56;5076859;27;45481;-69
2023/06/18 06:51:55;;;;;;;;;5.33;4.00;;;;;29.56;41.87;100891.59;5077010;27;45356;-69
2023/06/18 06:54:21;;;;;;;;;4.00;4.00;;;;;29.34;42.29;100873.41;5092732;27;48234;-70
2023/06/18 06:56:46;;;;;;;;;4.67;4.00;;;;;29.14;42.66;100876.38;5076717;28;45578;-72
2023/06/18 06:59:11;;;;;;;;;4.67;4.00;;;;;28.92;42.88;100879.53;5077059;27;45386;-71
2023/06/18 07:01:37;;;;;;;;;8.00;5.67;;;;;28.72;43.47;100880.63;5077165;28;45445;-70
2023/06/18 07:04:03;;;;;;;;;5.67;5.00;;;;;28.58;43.20;100882.63;5076712;27;46901;-70
2023/06/18 07:06:28;;;;;;;;;4.00;4.00;;;;;28.44;43.85;100896.16;5073212;28;45466;-70
2023/06/18 07:08:54;;;;;;;;;4.67;3.67;;;;;28.28;43.54;100892.19;5068409;28;45370;-71
2023/06/18 07:11:19;;;;;;;;;5.67;5.00;;;;;28.12;44.05;100896.25;5075512;27;45338;-71
2023/06/18 07:13:44;;;;;;;;;4.00;4.00;;;;;27.99;43.95;100876.63;5076602;27;46313;-71
2023/06/18 07:16:10;;;;;;;;;3.67;3.67;;;;;27.93;44.56;100878.34;5075987;27;45413;-71
2023/06/18 07:18:35;;;;;;;;;6.67;4.00;;;;;27.87;44.49;100887.22;5076731;28;45383;-70
2023/06/18 07:21:01;;;;;;;;;5.00;5.00;;;;;27.73;45.27;100871.28;5044017;28;45431;-70
2023/06/18 07:23:26;;;;;;;;;6.00;4.00;;;;;27.68;45.29;100875.66;5048300;28;45976;-71
2023/06/18 07:25:51;;;;;;;;;4.33;4.00;;;;;27.64;44.70;100875.25;5035756;28;45422;-71
2023/06/18 07:28:17;;;;;;;;;6.67;5.00;;;;;27.57;45.11;100877.16;5035883;28;45301;-70
2023/06/18 07:30:42;;;;;;;;;5.67;5.67;;;;;27.52;45.86;100885.84;5035969;28;45349;-70
2023/06/18 07:33:07;;;;;;;;;5.00;5.00;;;;;27.48;45.57;100876.63;5038138;28;51356;-69
2023/06/18 07:35:33;;;;;;;;;4.67;4.67;;;;;27.36;45.58;100881.84;5049001;28;45403;-71
2023/06/18 07:37:58;;;;;;;;;4.00;4.00;;;;;27.31;45.27;100879.81;5057786;28;45352;-70
2023/06/18 07:40:25;;;;;;;;;4.33;4.33;;;;;27.34;46.07;100878.56;5063898;28;45503;-70
2023/06/18 07:42:51;;;;;;;;;6.00;6.00;;;;;27.40;45.68;100873.16;5065163;28;47406;-74
2023/06/18 07:45:16;;;;;;;;;5.67;3.67;;;;;27.51;45.71;100874.31;5063317;28;45396;-70
2023/06/18 07:47:41;;;;;;;;;4.33;4.33;;;;;27.56;45.78;100873.66;5066239;28;45385;-71
2023/06/18 07:50:08;;;;;;;;;4.00;4.00;;;;;27.61;46.06;100871.16;5055566;28;46421;-71
2023/06/18 07:52:34;;;;;;;;;4.00;4.00;;;;;27.65;46.10;100881.41;5055484;28;46202;-71
2023/06/18 07:54:59;;;;;;;;;4.33;4.33;;;;;27.65;46.04;100874.22;5055564;28;45476;-71
2023/06/18 07:57:25;;;;;;;;;7.00;4.33;;;;;27.74;46.57;100877.44;5055824;28;45615;-72
2023/06/18 07:59:50;;;;;;;;;4.00;4.00;;;;;27.87;45.93;100876.53;5055826;28;45525;-71
2023/06/18 08:02:15;;;;;;;;;6.67;5.67;;;;;27.96;45.83;100869.06;5055695;28;47307;-71
2023/06/18 08:04:41;;;;;;;;;5.00;5.00;;;;;28.15;45.85;100877.09;5055700;28;45481;-71
2023/06/18 08:07:06;;;;;;;;;5.33;5.00;;;;;28.25;45.43;100873.91;5055760;28;45455;-71
2023/06/18 08:09:31;;;;;;;;;5.33;5.00;;;;;28.37;45.44;100879.31;5055377;28;45341;-72
2023/06/18 08:11:57;;;;;;;;;4.33;4.33;;;;;28.47;44.97;100873.50;5055467;28;45483;-71
2023/06/18 08:14:22;;;;;;;;;5.33;3.67;;;;;28.56;44.43;100863.31;5055605;28;45340;-71
2023/06/18 08:16:48;;;;;;;;;4.67;4.67;;;;;28.62;44.38;100868.56;5072782;28;45614;-71
2023/06/18 08:19:13;;;;;;;;;5.33;4.33;;;;;28.70;44.11;100870.09;5075894;28;45386;-72
2023/06/18 08:21:39;;;;;;;;;4.00;4.00;;;;;28.78;43.98;100866.31;5075826;28;45626;-71
2023/06/18 08:24:04;;;;;;;;;5.00;5.00;;;;;28.86;44.11;100859.81;5075418;28;45320;-71
2023/06/18 08:26:29;;;;;;;;;5.00;4.00;;;;;28.92;43.79;100858.09;5075879;28;45350;-71
2023/06/18 08:28:55;;;;;;;;;4.33;4.33;;;;;28.95;43.71;100855.78;5075862;27;45392;-72
2023/06/18 08:31:21;;;;;;;;;6.00;4.67;;;;;29.03;43.91;100854.66;5091267;27;47076;-72
2023/06/18 08:33:47;;;;;;;;;4.67;3.67;;;;;29.09;43.22;100857.47;5075481;27;45344;-72
2023/06/18 08:36:13;;;;;;;;;5.67;4.33;;;;;29.13;43.73;100864.03;5075744;28;45351;-72
2023/06/18 08:38:38;;;;;;;;;4.00;4.00;;;;;29.16;43.00;100863.56;5075203;27;45387;-72
2023/06/18 08:41:05;;;;;;;;;4.00;3.00;;;;;29.20;43.13;100853.22;5075611;28;45529;-72
2023/06/18 08:43:36;;;;;;;;;6.67;5.00;;;;;29.25;43.00;100858.72;5076091;27;45345;-72
2023/06/18 08:46:08;;;;;;;;;3.67;3.67;;;;;29.29;42.87;100859.88;5079178;27;45433;-71
2023/06/18 08:48:41;;;;;;;;;5.67;4.33;;;;;29.33;43.00;100860.25;5079068;27;45403;-71
2023/06/18 08:51:09;;;;;;;;;6.00;5.00;;;;;29.35;42.86;100853.59;5078730;28;46667;-71
2023/06/18 08:53:40;;;;;;;;;4.00;4.00;;;;;29.40;43.06;100856.41;5078633;28;45325;-71
2023/06/18 08:56:07;;;;;;;;;5.67;5.67;;;;;29.44;42.76;100869.31;5079076;28;45402;-72
2023/06/18 08:58:38;;;;;;;;;5.00;5.00;;;;;29.46;42.43;100860.00;5078807;28;45461;-71
2023/06/18 09:01:04;;;;;;;;;5.00;5.00;;;;;29.51;42.61;100852.09;5078697;28;46294;-71
2023/06/18 09:03:31;;;;;;;;;4.00;4.00;;;;;29.57;42.44;100852.22;5078774;27;45343;-72
2023/06/18 09:05:56;;;;;;;;;5.67;4.33;;;;;29.60;42.49;100849.91;5078972;28;45325;-71
2023/06/18 09:08:24;;;;;;;;;4.00;4.00;;;;;29.63;42.58;100854.78;5078765;27;45578;-71
2023/06/18 09:10:49;;;;;;;;;4.33;4.33;;;;;29.68;42.15;100846.06;5078689;28;45463;-71
2023/06/18 09:13:15;;;;;;;;;6.33;5.00;;;;;29.71;42.16;100842.09;5078497;28;45331;-72
2023/06/18 09:15:40;;;;;;;;;4.00;4.00;;;;;29.74;42.02;100836.28;5078711;28;45370;-71
2023/06/18 09:18:06;;;;;;;;;4.33;3.33;;;;;29.77;41.86;100841.16;5078903;27;45331;-71
2023/06/18 09:20:33;;;;;;;;;6.00;5.00;;;;;29.81;41.83;100849.56;5078469;27;46056;-71
2023/06/18 09:23:07;;;;;;;;;5.33;4.00;;;;;29.82;41.86;100846.66;5078277;28;45463;-71
2023/06/18 09:25:33;;;;;;;;;5.33;4.00;;;;;29.82;41.97;100846.66;5078456;28;45353;-71
2023/06/18 09:28:00;;;;;;;;;3.67;3.00;;;;;29.85;41.73;100842.69;5078546;28;45299;-71
2023/06/18 09:30:26;;;;;;;;;5.00;4.00;;;;;29.84;41.61;100835.69;5078299;28;46066;-71
2023/06/18 09:32:53;;;;;;;;;5.00;5.00;;;;;29.85;41.86;100835.47;5078339;28;45363;-71
2023/06/18 09:35:19;;;;;;;;;6.67;6.33;;;;;29.88;41.79;100836.84;5078175;28;45348;-72
2023/06/18 09:37:45;;;;;;;;;3.33;3.33;;;;;29.88;41.93;100839.53;5078415;28;45284;-72
2023/06/18 09:40:19;;;;;;;;;6.00;5.33;;;;;29.92;41.89;100839.91;5078076;27;47082;-72
2023/06/18 09:42:45;;;;;;;;;4.00;4.00;;;;;29.93;41.61;100849.56;5078229;27;45334;-71
2023/06/18 09:45:11;;;;;;;;;5.33;5.33;;;;;29.95;42.10;100850.16;5078277;27;45351;-71
2023/06/18 09:47:39;;;;;;;;;3.00;3.00;;;;;29.97;41.72;100837.31;5078129;28;45307;-71
2023/06/18 09:50:05;;;;;;;;;4.33;3.33;;;;;30.02;41.34;100848.16;5077447;27;46523;-72
2023/06/18 09:52:40;;;;;;;;;3.67;3.67;;;;;30.04;41.82;100843.38;5077932;28;45389;-71
2023/06/18 09:55:28;;;;;;;;;4.00;4.00;;;;;30.07;41.37;100836.72;5077931;28;45406;-71
2023/06/18 09:57:53;;;;;;;;;3.00;3.00;;;;;30.11;41.22;100835.19;5078110;28;45295;-71
2023/06/18 10:00:20;;;;;;;;;5.00;4.00;;;;;30.12;41.24;100836.00;5077743;28;46918;-72
2023/06/18 10:02:45;;;;;;;;;4.67;4.33;;;;;30.16;41.27;100831.81;5077855;27;45363;-71
2023/06/18 10:05:10;;;;;;;;;4.00;4.00;;;;;30.18;41.56;100838.56;5077595;27;45267;-72
2023/06/18 10:07:40;;;;;;;;;4.33;4.33;;;;;30.21;41.32;100841.84;5077980;28;45549;-71
2023/06/18 10:10:09;;;;;;;;;6.00;5.00;;;;;30.24;41.30;100841.38;5077798;27;46906;-72
2023/06/18 10:12:35;;;;;;;;;5.00;5.00;;;;;30.27;40.99;100839.00;5077421;28;45515;-71
2023/06/18 10:15:02;;;;;;;;;3.33;3.33;;;;;30.30;41.33;100832.34;5077539;28;45327;-71
2023/06/18 10:17:35;;;;;;;;;3.00;3.00;;;;;30.33;41.26;100839.16;5077905;28;45405;-72
2023/06/18 10:20:06;;;;;;;;;4.67;4.33;;;;;30.34;41.17;100836.25;5077222;28;46159;-72
2023/06/18 10:22:39;;;;;;;;;5.00;4.00;;;;;30.38;40.93;100837.38;5077450;28;45300;-71
2023/06/18 10:25:06;;;;;;;;;4.33;4.33;;;;;30.39;40.84;100825.56;5077623;28;45375;-72
2023/06/18 10:27:33;;;;;;;;;3.00;2.67;;;;;30.40;40.90;100824.53;5077604;28;45510;-71
2023/06/18 10:29:59;;;;;;;;;4.67;4.67;;;;;30.43;41.13;100847.41;5077370;27;45371;-71
2023/06/18 10:32:26;;;;;;;;;4.67;4.67;;;;;30.44;41.01;100837.47;5077407;28;45362;-72
2023/06/18 10:34:53;;;;;;;;;4.00;4.00;;;;;30.44;40.59;100829.44;5077263;28;45332;-71
2023/06/18 10:37:20;;;;;;;;;6.33;3.33;;;;;30.46;40.91;100827.31;5075993;28;45536;-71
2023/06/18 10:39:46;;;;;;;;;3.00;2.67;;;;;30.46;40.60;100830.81;5077157;27;45330;-71
2023/06/18 10:42:14;;;;;;;;;5.00;3.00;;;;;30.45;41.18;100817.63;5077121;28;45241;-71
2023/06/18 10:44:54;;;;;;;;;5.67;4.67;;;;;30.49;41.00;100824.16;5077388;27;45314;-71
2023/06/18 10:47:25;;;;;;;;;5.00;5.00;;;;;30.48;40.92;100823.34;5077234;27;45331;-71
2023/06/18 10:50:00;;;;;;;;;4.67;4.67;;;;;30.48;40.52;100812.59;5076559;27;46059;-71
2023/06/18 10:52:25;;;;;;;;;4.00;3.67;;;;;30.42;40.98;100802.81;5076838;28;45168;-72
2023/06/18 10:54:54;;;;;;;;;3.67;3.67;;;;;30.46;40.64;100800.47;5077207;28;45378;-72
2023/06/18 10:57:25;;;;;;;;;3.00;2.33;;;;;30.47;40.64;100799.44;5077183;28;45338;-71
2023/06/18 10:59:50;;;;;;;;;3.00;3.00;;;;;30.45;41.17;100793.47;5076990;28;45487;-72
2023/06/18 11:02:31;;;;;;;;;5.33;4.00;;;;;30.46;40.78;100797.78;5076596;28;45413;-72
2023/06/18 11:04:57;;;;;;;;;3.67;3.67;;;;;30.45;40.87;100772.00;5077191;28;45265;-71
2023/06/18 11:07:23;;;;;;;;;4.00;3.00;;;;;30.45;40.54;100785.41;5076147;28;45419;-71
2023/06/18 11:09:51;;;;;;;;;2.33;2.00;;;;;30.44;41.02;100773.88;5076745;28;47083;-71
2023/06/18 11:12:26;;;;;;;;;4.00;4.00;;;;;30.42;40.59;100762.56;5076867;28;45595;-71
2023/06/18 11:15:05;;;;;;;;;5.00;5.00;;;;;30.44;40.78;100770.38;5076655;28;45403;-71